< Typhoon 195915 1959 Season Typhoon 195917 >
Typhoon 195916 (AMY)
General InformationTrack Information on Google Maps || Disaster Info.ResourceGoogle EarthGE AnimationAtom FeedGeoJSON
Detalied Best Track (Time Zone = UTC)
Year Month Day Hour Lat. Long. Pressure (hPa) Wind (kt) Class Image Chart
1959 10 3 06 17.0 124.0 998 0 2 -- Chart
1959 10 3 12 17.6 124.1 998 0 9 -- Chart
1959 10 3 18 17.7 124.3 998 0 9 -- Chart
1959 10 4 00 17.7 124.7 998 0 9 -- Chart
1959 10 4 06 17.7 125.0 998 0 9 -- Chart
1959 10 4 12 18.2 125.7 995 0 9 -- Chart
1959 10 4 18 19.1 125.9 990 0 9 -- Chart
1959 10 5 00 20.0 126.0 990 0 9 -- Chart
1959 10 5 06 20.9 126.1 990 0 9 -- Chart
1959 10 5 12 22.3 126.8 990 0 9 -- Chart
1959 10 5 18 23.5 127.0 990 0 9 -- Chart
1959 10 6 00 25.7 128.1 990 0 9 -- Chart
1959 10 6 06 28.3 128.8 985 0 9 -- Chart
1959 10 6 12 30.1 130.2 990 0 9 -- Chart
1959 10 6 18 32.3 132.2 990 0 9 -- Chart
1959 10 7 00 33.7 134.3 996 0 9 -- Chart
1959 10 7 06 35.0 136.7 1000 0 9 -- Chart
1959 10 7 12 35.8 142.7 1002 0 6 -- Chart
1959 10 7 18 37.5 145.5 998 0 6 -- Chart
1959 10 8 00 37.8 148.8 996 0 6 -- Chart
1959 10 8 06 39.2 151.2 988 0 6 -- Chart
1959 10 8 12 40.3 155.0 988 0 6 -- Chart
1959 10 8 18 40.5 159.5 988 0 6 -- Chart
1959 10 9 00 40.0 164.4 986 0 6 -- Chart
1959 10 9 06 40.0 167.0 986 0 6 -- Chart
1959 10 9 12 41.0 170.0 988 0 6 -- Chart
1959 10 9 18 42.0 173.8 988 0 6 -- Chart
1959 10 10 00 42.5 176.0 982 0 6 -- Chart
1959 10 10 06 44.0 179.0 980 0 6 -- Chart
1959 10 10 12 45.0 181.0 976 0 6 -- Chart
Japan Meteorological Agency Best Track Data | Correction Date : 1991-07-16
< Typhoon 195915 1959 Season Typhoon 195917 >

Help